Aviation Digital Data Service (ADDS)

Output produced by METARs form (0018 UTC 20 April 2019)
found at http://www.aviationweather.gov/metar/data/
 
METAR text: DNPO 192300Z VRB02KT 9999 TS BKN009 FEW020CB 27/26 Q1011 NOSIG
Conditions at: DNPO (PORT HARCOURT , NG) observed 2300 UTC 19 April 2019
Temperature: 27.0°C (81°F)
Dewpoint: 26.0°C (79°F) [RH = 94%]
Pressure (altimeter): 29.85 inches Hg (1011.0 mb)
Winds: variable direction winds at 2 MPH (2 knots; 1.0 m/s)
Visibility: 6 or more miles (10+ km)
Ceiling: 900 feet AGL
Clouds: broken clouds at 900 feet AGL
few clouds at 2000 feet AGL
Weather: TS  (thunderstorm)

METAR text: DNPO 192200Z VRB02KT 9999 TS BKN009 FEW020CB 28/25 Q1020 NOSIG
Conditions at: DNPO (PORT HARCOURT , NG) observed 2200 UTC 19 April 2019
Temperature: 28.0°C (82°F)
Dewpoint: 25.0°C (77°F) [RH = 84%]
Pressure (altimeter): 30.12 inches Hg (1020.0 mb)
Winds: variable direction winds at 2 MPH (2 knots; 1.0 m/s)
Visibility: 6 or more miles (10+ km)
Ceiling: 900 feet AGL
Clouds: broken clouds at 900 feet AGL
few clouds at 2000 feet AGL
Weather: TS  (thunderstorm)

METAR text: DNPO 192100Z VRB02KT 9999 TS BKN009 FEW020CB 28/25 Q1011 NOSIG
Conditions at: DNPO (PORT HARCOURT , NG) observed 2100 UTC 19 April 2019
Temperature: 28.0°C (82°F)
Dewpoint: 25.0°C (77°F) [RH = 84%]
Pressure (altimeter): 29.85 inches Hg (1011.0 mb)
Winds: variable direction winds at 2 MPH (2 knots; 1.0 m/s)
Visibility: 6 or more miles (10+ km)
Ceiling: 900 feet AGL
Clouds: broken clouds at 900 feet AGL
few clouds at 2000 feet AGL
Weather: TS  (thunderstorm)

METAR text: DNPO 192000Z VRB02KT 9999 TS BKN009 FEW020CB 28/25 Q1011 NOSIG
Conditions at: DNPO (PORT HARCOURT , NG) observed 2000 UTC 19 April 2019
Temperature: 28.0°C (82°F)
Dewpoint: 25.0°C (77°F) [RH = 84%]
Pressure (altimeter): 29.85 inches Hg (1011.0 mb)
Winds: variable direction winds at 2 MPH (2 knots; 1.0 m/s)
Visibility: 6 or more miles (10+ km)
Ceiling: 900 feet AGL
Clouds: broken clouds at 900 feet AGL
few clouds at 2000 feet AGL
Weather: TS  (thunderstorm)

METAR text: DNPO 191800Z 18006KT 9999 BKN010 FEW020CB 30/26 Q1009 TEMPO TS
Conditions at: DNPO (PORT HARCOURT , NG) observed 1800 UTC 19 April 2019
Temperature: 30.0°C (86°F)
Dewpoint: 26.0°C (79°F) [RH = 79%]
Pressure (altimeter): 29.79 inches Hg (1009.0 mb)
Winds: from the S (180 degrees) at 7 MPH (6 knots; 3.1 m/s)
Visibility: 6 or more miles (10+ km)
Ceiling: 1000 feet AGL
Clouds: broken clouds at 1000 feet AGL
few clouds at 2000 feet AGL
Weather: no significant weather observed at this time

METAR text: DNPO 191500Z 18005KT 9999 BKN012 FEW020CB 32/25 Q1008 NOSIG
Conditions at: DNPO (PORT HARCOURT , NG) observed 1500 UTC 19 April 2019
Temperature: 32.0°C (90°F)
Dewpoint: 25.0°C (77°F) [RH = 67%]
Pressure (altimeter): 29.76 inches Hg (1008.0 mb)
Winds: from the S (180 degrees) at 6 MPH (5 knots; 2.6 m/s)
Visibility: 6 or more miles (10+ km)
Ceiling: 1200 feet AGL
Clouds: broken clouds at 1200 feet AGL
few clouds at 2000 feet AGL
Weather: no significant weather observed at this time

METAR text: DNPO 191400Z 16005KT 9999 BKN012 FEW020CB 32/25 Q1008 NOSIG
Conditions at: DNPO (PORT HARCOURT , NG) observed 1400 UTC 19 April 2019
Temperature: 32.0°C (90°F)
Dewpoint: 25.0°C (77°F) [RH = 67%]
Pressure (altimeter): 29.76 inches Hg (1008.0 mb)
Winds: from the SSE (160 degrees) at 6 MPH (5 knots; 2.6 m/s)
Visibility: 6 or more miles (10+ km)
Ceiling: 1200 feet AGL
Clouds: broken clouds at 1200 feet AGL
few clouds at 2000 feet AGL
Weather: no significant weather observed at this time

METAR text: DNPO 191200Z 18007KT 8000 BKN011 31/25 Q1010 NOSIG
Conditions at: DNPO (PORT HARCOURT , NG) observed 1200 UTC 19 April 2019
Temperature: 31.0°C (88°F)
Dewpoint: 25.0°C (77°F) [RH = 71%]
Pressure (altimeter): 29.82 inches Hg (1010.0 mb)
Winds: from the S (180 degrees) at 8 MPH (7 knots; 3.6 m/s)
Visibility: 5 miles ( 8 km)
Ceiling: 1100 feet AGL
Clouds: broken clouds at 1100 feet AGL
Weather: no significant weather observed at this time

METAR text: DNPO 191100Z 18003KT 8000 BKN011 31/25 Q1011 NOSIG
Conditions at: DNPO (PORT HARCOURT , NG) observed 1100 UTC 19 April 2019
Temperature: 31.0°C (88°F)
Dewpoint: 25.0°C (77°F) [RH = 71%]
Pressure (altimeter): 29.85 inches Hg (1011.0 mb)
Winds: from the S (180 degrees) at 3 MPH (3 knots; 1.5 m/s)
Visibility: 5 miles ( 8 km)
Ceiling: 1100 feet AGL
Clouds: broken clouds at 1100 feet AGL
Weather: no significant weather observed at this time

METAR text: DNPO 191000Z 15003KT 8000 BKN010 29/26 Q1012 NOSIG
Conditions at: DNPO (PORT HARCOURT , NG) observed 1000 UTC 19 April 2019
Temperature: 29.0°C (84°F)
Dewpoint: 26.0°C (79°F) [RH = 84%]
Pressure (altimeter): 29.88 inches Hg (1012.0 mb)
Winds: from the SSE (150 degrees) at 3 MPH (3 knots; 1.5 m/s)
Visibility: 5 miles ( 8 km)
Ceiling: 1000 feet AGL
Clouds: broken clouds at 1000 feet AGL
Weather: no significant weather observed at this time

METAR text: DNPO 190800Z 00000KT 7000 BKN008 25/24 Q1012 NOSIG
Conditions at: DNPO (PORT HARCOURT , NG) observed 0800 UTC 19 April 2019
Temperature: 25.0°C (77°F)
Dewpoint: 24.0°C (75°F) [RH = 94%]
Pressure (altimeter): 29.88 inches Hg (1012.0 mb)
Winds: calm
Visibility: 4 miles ( 7 km)
Ceiling: 800 feet AGL
Clouds: broken clouds at 800 feet AGL
Weather: no significant weather observed at this time

METAR text: DNPO 190000Z 00000KT 8000 NSC 24/23 Q1010 NOSIG
Conditions at: DNPO (PORT HARCOURT , NG) observed 0000 UTC 19 April 2019
Temperature: 24.0°C (75°F)
Dewpoint: 23.0°C (73°F) [RH = 94%]
Pressure (altimeter): 29.82 inches Hg (1010.0 mb)
Winds: calm
Visibility: 5 miles ( 8 km)
Ceiling: at least 12,000 feet AGL
Clouds: sky clear below 12,000 feet AGL
Weather: no significant weather observed at this time

METAR text: DNPO 182100Z 00000KT 8000 NSC 24/23 Q1009 NOSIG
Conditions at: DNPO (PORT HARCOURT , NG) observed 2100 UTC 18 April 2019
Temperature: 24.0°C (75°F)
Dewpoint: 23.0°C (73°F) [RH = 94%]
Pressure (altimeter): 29.79 inches Hg (1009.0 mb)
Winds: calm
Visibility: 5 miles ( 8 km)
Ceiling: at least 12,000 feet AGL
Clouds: sky clear below 12,000 feet AGL
Weather: no significant weather observed at this time

METAR text: DNPO 182000Z 00000KT 8000 NSC 25/24 Q1009 NOSIG
Conditions at: DNPO (PORT HARCOURT , NG) observed 2000 UTC 18 April 2019
Temperature: 25.0°C (77°F)
Dewpoint: 24.0°C (75°F) [RH = 94%]
Pressure (altimeter): 29.79 inches Hg (1009.0 mb)
Winds: calm
Visibility: 5 miles ( 8 km)
Ceiling: at least 12,000 feet AGL
Clouds: sky clear below 12,000 feet AGL
Weather: no significant weather observed at this time

METAR text: DNPO 181800Z 00000KT 8000 NSC 26/24 Q1009 NOSIG
Conditions at: DNPO (PORT HARCOURT , NG) observed 1800 UTC 18 April 2019
Temperature: 26.0°C (79°F)
Dewpoint: 24.0°C (75°F) [RH = 89%]
Pressure (altimeter): 29.79 inches Hg (1009.0 mb)
Winds: calm
Visibility: 5 miles ( 8 km)
Ceiling: at least 12,000 feet AGL
Clouds: sky clear below 12,000 feet AGL
Weather: no significant weather observed at this time

METAR text: DNPO 181700Z VRB02KT 8000 BKN009 FEW020CB 27/24 Q1008 NOSIG
Conditions at: DNPO (PORT HARCOURT , NG) observed 1700 UTC 18 April 2019
Temperature: 27.0°C (81°F)
Dewpoint: 24.0°C (75°F) [RH = 84%]
Pressure (altimeter): 29.76 inches Hg (1008.0 mb)
Winds: variable direction winds at 2 MPH (2 knots; 1.0 m/s)
Visibility: 5 miles ( 8 km)
Ceiling: 900 feet AGL
Clouds: broken clouds at 900 feet AGL
few clouds at 2000 feet AGL
Weather: no significant weather observed at this time

METAR text: DNPO 181600Z VRB02KT 8000 BKN009 FEW020CB 28/24 Q1007 NOSIG
Conditions at: DNPO (PORT HARCOURT , NG) observed 1600 UTC 18 April 2019
Temperature: 28.0°C (82°F)
Dewpoint: 24.0°C (75°F) [RH = 79%]
Pressure (altimeter): 29.73 inches Hg (1007.0 mb)
Winds: variable direction winds at 2 MPH (2 knots; 1.0 m/s)
Visibility: 5 miles ( 8 km)
Ceiling: 900 feet AGL
Clouds: broken clouds at 900 feet AGL
few clouds at 2000 feet AGL
Weather: no significant weather observed at this time

METAR text: DNPO 181500Z VRB02KT 8000 BKN009 FEW020CB 28/23 Q1008 NOSIG
Conditions at: DNPO (PORT HARCOURT , NG) observed 1500 UTC 18 April 2019
Temperature: 28.0°C (82°F)
Dewpoint: 23.0°C (73°F) [RH = 74%]
Pressure (altimeter): 29.76 inches Hg (1008.0 mb)
Winds: variable direction winds at 2 MPH (2 knots; 1.0 m/s)
Visibility: 5 miles ( 8 km)
Ceiling: 900 feet AGL
Clouds: broken clouds at 900 feet AGL
few clouds at 2000 feet AGL
Weather: no significant weather observed at this time

METAR text: DNPO 181400Z 16003KT 8000 FEW020CB 28/23 Q1009 NOSIG
Conditions at: DNPO (PORT HARCOURT , NG) observed 1400 UTC 18 April 2019
Temperature: 28.0°C (82°F)
Dewpoint: 23.0°C (73°F) [RH = 74%]
Pressure (altimeter): 29.79 inches Hg (1009.0 mb)
Winds: from the SSE (160 degrees) at 3 MPH (3 knots; 1.5 m/s)
Visibility: 5 miles ( 8 km)
Ceiling: at least 12,000 feet AGL
Clouds: few clouds at 2000 feet AGL
Weather: no significant weather observed at this time

METAR text: DNPO 181300Z VRB02KT 8000 BKN009 FEW020CB 27/23 Q1009 NOSIG
Conditions at: DNPO (PORT HARCOURT , NG) observed 1300 UTC 18 April 2019
Temperature: 27.0°C (81°F)
Dewpoint: 23.0°C (73°F) [RH = 79%]
Pressure (altimeter): 29.79 inches Hg (1009.0 mb)
Winds: variable direction winds at 2 MPH (2 knots; 1.0 m/s)
Visibility: 5 miles ( 8 km)
Ceiling: 900 feet AGL
Clouds: broken clouds at 900 feet AGL
few clouds at 2000 feet AGL
Weather: no significant weather observed at this time

Forecast for: DNPO (PORT HARCOURT , NG)
Text: TAF DNPO 192135Z 2000/2106 VRB02KT 8000 TS BKN009 FEW020CB
Forecast period: 0000 to 0300 UTC 20 April 2019
Forecast type: FROM: standard forecast or significant change
Winds: variable direction winds at 2 MPH (2 knots; 1.0 m/s)
Visibility: 5 miles (8 km)
Ceiling: 900 feet AGL
Clouds: broken clouds at 900 feet AGL
few clouds at 2000 feet AGL
Weather: TS  (thunderstorm)
Text: TEMPO 2000/2003 5000 -TSRA
Forecast period: 0000 to 0300 UTC 20 April 2019
Forecast type: TEMPORARY: The following changes expected for less than half the time period
Visibility: 3 miles (5 km)
Ceiling: unknown
Clouds: missing
Weather: -TSRA  (light rain associated with thunderstorm(s))
Text: BECMG 2003/2005 NSW BKN008
Forecast period: 0300 UTC 20 April 2019 to 0600 UTC 21 April 2019
Forecast type: BECOMING: Conditions expected to become as follows by 0500 UTC 20 April 2019
Winds: variable direction winds at 2 MPH (2 knots; 1.0 m/s)
Visibility: 5 miles (8 km)
Ceiling: 800 feet AGL
Clouds: broken clouds at 800 feet AGL
Weather: NSW  (no significant weather)
Text: TEMPO 2005/2007 5000 BR
Forecast period: 0500 to 0700 UTC 20 April 2019
Forecast type: TEMPORARY: The following changes expected for less than half the time period
Visibility: 3 miles (5 km)
Ceiling: unknown
Clouds: missing
Weather: BR  (mist)